createdAt,value
2024-02-08T00:01:09.541Z,86.30
2024-02-08T00:03:36.486Z,86.40
2024-02-08T00:06:03.493Z,86.40
2024-02-08T00:08:30.256Z,86.40
2024-02-08T00:10:57.024Z,86.40
2024-02-08T00:13:24.375Z,86.40
2024-02-08T00:15:51.166Z,86.30
2024-02-08T00:18:19.588Z,86.10
2024-02-08T00:20:46.505Z,86.20
2024-02-08T00:23:15.397Z,86.40
2024-02-08T00:25:42.263Z,86.60
2024-02-08T00:28:12.689Z,86.70
2024-02-08T00:30:41.755Z,86.80
2024-02-08T00:33:08.962Z,86.80
2024-02-08T00:35:35.844Z,86.80
2024-02-08T00:38:02.829Z,86.90
2024-02-08T00:40:29.576Z,87.00
2024-02-08T00:42:56.299Z,87.00
2024-02-08T00:45:23.953Z,86.90
2024-02-08T00:47:51.740Z,87.00
2024-02-08T00:50:22.262Z,86.70
2024-02-08T00:52:49.318Z,86.80
2024-02-08T00:55:19.117Z,87.00
2024-02-08T00:57:46.113Z,86.80
2024-02-08T01:00:13.249Z,86.30
2024-02-08T01:02:44.957Z,86.40
2024-02-08T01:05:11.790Z,86.60
2024-02-08T01:07:38.617Z,86.90
2024-02-08T01:10:08.528Z,87.10
2024-02-08T01:12:35.590Z,86.90
2024-02-08T01:15:03.723Z,87.00
2024-02-08T01:17:30.775Z,87.20
2024-02-08T01:20:01.883Z,87.30
2024-02-08T01:22:28.889Z,87.30
2024-02-08T01:24:56.341Z,86.90
2024-02-08T01:27:23.053Z,87.00
2024-02-08T01:30:00.721Z,86.90
2024-02-08T01:32:29.328Z,87.00
2024-02-08T01:34:56.466Z,87.50
2024-02-08T01:37:23.282Z,87.60
2024-02-08T01:39:50.121Z,87.30
2024-02-08T01:42:17.480Z,87.20
2024-02-08T01:44:46.621Z,86.90
2024-02-08T01:47:14.297Z,86.90
2024-02-08T01:49:41.994Z,87.30
2024-02-08T01:52:10.499Z,87.10
2024-02-08T01:54:44.883Z,87.10
2024-02-08T01:57:12.149Z,88.20
2024-02-08T01:59:40.081Z,87.60
2024-02-08T02:02:09.035Z,87.70
2024-02-08T02:04:36.028Z,88.10
2024-02-08T02:07:04.848Z,88.20
2024-02-08T02:09:32.502Z,88.30
2024-02-08T02:12:09.032Z,87.80
2024-02-08T02:14:37.036Z,87.60
2024-02-08T02:17:14.590Z,87.60
2024-02-08T02:19:42.441Z,87.90
2024-02-08T02:22:11.281Z,87.70
2024-02-08T02:24:38.857Z,88.40
2024-02-08T02:27:07.069Z,87.80
2024-02-08T02:29:39.516Z,87.70
2024-02-08T02:32:22.223Z,87.60
2024-02-08T02:34:52.980Z,87.50
2024-02-08T02:37:20.269Z,87.60
2024-02-08T02:39:47.010Z,87.80
2024-02-08T02:42:15.810Z,87.80
2024-02-08T02:44:42.586Z,87.80
2024-02-08T02:47:09.392Z,88.10
2024-02-08T02:49:40.102Z,88.50
2024-02-08T02:52:10.128Z,88.30
2024-02-08T02:54:37.655Z,88.30
2024-02-08T02:57:04.688Z,88.50
2024-02-08T02:59:31.786Z,88.60
2024-02-08T03:01:59.114Z,88.40
2024-02-08T03:04:29.001Z,88.30
2024-02-08T03:06:55.838Z,88.30
2024-02-08T03:09:28.649Z,88.50
2024-02-08T03:11:58.509Z,88.70
2024-02-08T03:14:26.552Z,88.80
2024-02-08T03:16:53.364Z,88.40
2024-02-08T03:19:21.715Z,88.40
2024-02-08T03:21:50.669Z,88.30
2024-02-08T03:24:20.505Z,88.40
2024-02-08T03:26:48.562Z,88.70
2024-02-08T03:29:17.282Z,88.70
2024-02-08T03:31:46.730Z,88.60
2024-02-08T03:34:20.918Z,88.40
2024-02-08T03:36:48.148Z,88.10
2024-02-08T03:39:26.461Z,88.30
2024-02-08T03:42:05.723Z,88.30
2024-02-08T03:44:32.985Z,88.30
2024-02-08T03:47:06.807Z,88.30
2024-02-08T03:49:34.036Z,88.30
2024-02-08T03:52:00.977Z,88.40
2024-02-08T03:54:31.262Z,88.50
2024-02-08T03:57:07.300Z,88.70
2024-02-08T03:59:35.563Z,88.60
2024-02-08T04:02:04.747Z,88.50
2024-02-08T04:04:48.664Z,88.40
2024-02-08T04:07:22.787Z,88.50
2024-02-08T04:09:57.088Z,89.00
2024-02-08T04:12:43.636Z,89.10
2024-02-08T04:15:30.678Z,89.20
2024-02-08T04:18:16.078Z,89.20
2024-02-08T04:21:01.704Z,89.60
2024-02-08T04:23:46.994Z,89.80
2024-02-08T04:26:32.510Z,89.70
2024-02-08T04:29:18.054Z,89.80
2024-02-08T04:32:06.416Z,88.90
2024-02-08T04:34:52.246Z,89.30
2024-02-08T04:37:37.444Z,89.50
2024-02-08T04:40:23.046Z,89.80
2024-02-08T04:43:08.478Z,90.00
2024-02-08T04:45:53.849Z,90.00
2024-02-08T04:48:39.325Z,90.00
2024-02-08T04:51:29.044Z,89.80
2024-02-08T04:53:56.507Z,89.10
2024-02-08T04:56:23.467Z,89.30
2024-02-08T04:59:11.025Z,89.50
2024-02-08T05:01:39.313Z,89.20
2024-02-08T05:04:06.375Z,89.20
2024-02-08T05:06:36.374Z,89.30
2024-02-08T05:09:03.961Z,89.30
2024-02-08T05:11:31.042Z,89.10
2024-02-08T05:14:02.198Z,89.40
2024-02-08T05:16:32.251Z,88.90
2024-02-08T05:18:59.280Z,89.30
2024-02-08T05:21:29.731Z,89.40
2024-02-08T05:23:59.312Z,90.20
2024-02-08T05:26:27.059Z,89.40
2024-02-08T05:28:54.206Z,89.40
2024-02-08T05:31:21.333Z,89.60
2024-02-08T05:33:48.329Z,89.80
2024-02-08T05:36:18.873Z,90.00
2024-02-08T05:38:46.810Z,89.60
2024-02-08T05:41:18.240Z,89.50
2024-02-08T05:43:53.060Z,89.40
2024-02-08T05:46:26.104Z,89.20
2024-02-08T05:48:54.123Z,89.30
2024-02-08T05:51:27.452Z,89.20
2024-02-08T05:53:54.328Z,90.10
2024-02-08T05:56:22.426Z,90.60
2024-02-08T05:58:52.940Z,90.70
2024-02-08T06:01:25.001Z,90.60
2024-02-08T06:03:54.329Z,90.40
2024-02-08T06:06:34.502Z,90.40
2024-02-08T06:09:11.072Z,90.40
2024-02-08T06:11:38.437Z,90.30
2024-02-08T06:14:18.890Z,90.50
2024-02-08T06:16:48.668Z,90.60
2024-02-08T06:19:22.432Z,90.50
2024-02-08T06:21:49.442Z,90.40
2024-02-08T06:24:25.603Z,90.40
2024-02-08T06:27:14.348Z,90.40
2024-02-08T06:29:48.356Z,90.50
2024-02-08T06:32:27.222Z,90.40
2024-02-08T06:35:10.128Z,90.50
2024-02-08T06:37:47.275Z,90.50
2024-02-08T06:40:25.613Z,90.50
2024-02-08T06:43:14.191Z,90.60
2024-02-08T06:45:53.336Z,90.40
2024-02-08T06:48:33.384Z,90.10
2024-02-08T06:51:19.280Z,90.50
2024-02-08T06:54:05.254Z,90.60
2024-02-08T06:56:50.572Z,91.10
2024-02-08T06:59:36.081Z,90.60
2024-02-08T07:02:21.488Z,90.50
2024-02-08T07:05:10.447Z,90.60
2024-02-08T07:07:59.103Z,91.00
2024-02-08T07:10:44.827Z,91.20
2024-02-08T07:13:30.194Z,91.00
2024-02-08T07:16:15.725Z,90.80
2024-02-08T07:19:20.908Z,90.70
2024-02-08T07:22:05.957Z,90.60
2024-02-08T07:24:51.537Z,90.80
2024-02-08T07:27:36.931Z,90.70
2024-02-08T07:30:22.451Z,90.90
2024-02-08T07:33:14.521Z,90.90
2024-02-08T07:35:59.780Z,91.00
2024-02-08T07:38:45.195Z,90.90
2024-02-08T07:41:13.327Z,90.90
2024-02-08T07:43:44.995Z,90.60
2024-02-08T07:46:17.710Z,90.80
2024-02-08T07:48:45.318Z,90.80
2024-02-08T07:51:17.064Z,90.80
2024-02-08T07:53:52.277Z,90.70
2024-02-08T07:56:26.247Z,90.80
2024-02-08T07:58:57.719Z,90.70
2024-02-08T08:01:33.445Z,90.80
2024-02-08T08:04:02.453Z,90.80
2024-02-08T08:06:38.816Z,90.60
2024-02-08T08:09:20.038Z,90.50
2024-02-08T08:11:52.753Z,90.70
2024-02-08T08:14:34.946Z,90.70
2024-02-08T08:17:16.703Z,90.60
2024-02-08T08:19:46.092Z,90.50
2024-02-08T08:22:25.784Z,90.50
2024-02-08T08:25:13.567Z,90.50
2024-02-08T08:27:54.347Z,90.40
2024-02-08T08:30:33.115Z,90.40
2024-02-08T08:33:02.293Z,90.30
2024-02-08T08:35:35.539Z,90.00
2024-02-08T08:38:18.839Z,90.00
2024-02-08T08:40:50.118Z,90.10
2024-02-08T08:43:22.002Z,88.90
2024-02-08T08:45:55.101Z,89.90
2024-02-08T08:48:23.192Z,89.20
2024-02-08T08:50:56.289Z,89.80
2024-02-08T08:53:30.017Z,89.10
2024-02-08T08:55:57.798Z,89.00
2024-02-08T08:58:41.328Z,89.60
2024-02-08T09:01:16.653Z,89.20
2024-02-08T09:03:45.386Z,89.10
2024-02-08T09:06:15.299Z,88.70
2024-02-08T09:08:56.033Z,88.00
2024-02-08T09:11:27.221Z,88.60
2024-02-08T09:13:55.001Z,87.00
2024-02-08T09:16:25.938Z,87.90
2024-02-08T09:19:01.713Z,89.00
2024-02-08T09:21:34.149Z,89.00
2024-02-08T09:24:06.348Z,89.10
2024-02-08T09:26:55.444Z,87.90
2024-02-08T09:29:29.801Z,88.70
2024-02-08T09:32:01.274Z,88.70
2024-02-08T09:34:41.373Z,88.70
2024-02-08T09:37:09.938Z,87.90
2024-02-08T09:39:54.995Z,87.80
2024-02-08T09:42:28.471Z,88.00
2024-02-08T09:45:19.442Z,87.90
2024-02-08T09:47:53.737Z,87.90
2024-02-08T09:50:37.053Z,88.30
2024-02-08T09:53:20.612Z,88.00
2024-02-08T09:55:50.803Z,88.00
2024-02-08T09:58:34.724Z,87.80
2024-02-08T10:01:22.609Z,87.70
2024-02-08T10:04:05.790Z,87.00
2024-02-08T10:06:55.802Z,87.00
2024-02-08T10:09:37.552Z,87.40
2024-02-08T10:12:08.430Z,86.60
2024-02-08T10:14:43.126Z,86.20
2024-02-08T10:17:19.501Z,87.00
2024-02-08T10:20:31.260Z,87.30
2024-02-08T10:22:59.241Z,86.80
2024-02-08T10:25:48.551Z,87.50
2024-02-08T10:28:26.185Z,87.00
2024-02-08T10:31:13.810Z,86.50
2024-02-08T10:33:40.803Z,86.00
2024-02-08T10:36:11.783Z,86.10
2024-02-08T10:38:58.395Z,87.50
2024-02-08T10:41:49.214Z,86.60
2024-02-08T10:44:19.434Z,88.30
2024-02-08T10:46:49.483Z,85.30
2024-02-08T10:49:24.152Z,87.00
2024-02-08T10:52:01.209Z,86.10
2024-02-08T10:54:41.225Z,86.90
2024-02-08T10:57:30.391Z,86.70
2024-02-08T11:00:00.146Z,87.50
2024-02-08T11:02:33.525Z,87.50
2024-02-08T11:05:19.463Z,87.10
2024-02-08T11:07:47.650Z,86.60
2024-02-08T11:10:22.109Z,86.80
2024-02-08T11:12:57.512Z,87.00
2024-02-08T11:15:39.932Z,86.50
2024-02-08T11:18:29.617Z,87.60
2024-02-08T11:21:04.986Z,87.80
2024-02-08T11:23:46.681Z,88.10
2024-02-08T11:26:13.719Z,88.40
2024-02-08T11:28:48.751Z,88.50
2024-02-08T11:31:18.932Z,88.70
2024-02-08T11:33:46.546Z,88.70
2024-02-08T11:36:16.017Z,88.30
2024-02-08T11:38:48.322Z,88.80
2024-02-08T11:41:19.728Z,88.50
2024-02-08T11:43:52.334Z,88.70
2024-02-08T11:46:20.786Z,88.90
2024-02-08T11:48:49.105Z,88.70
2024-02-08T11:51:17.695Z,88.80
2024-02-08T11:53:46.010Z,88.40
2024-02-08T11:56:16.851Z,88.00
2024-02-08T11:58:45.488Z,88.10
2024-02-08T12:01:16.032Z,88.40
2024-02-08T12:03:44.263Z,88.50
2024-02-08T12:06:22.701Z,88.30
2024-02-08T12:09:05.646Z,87.90
2024-02-08T12:11:33.920Z,89.50
2024-02-08T12:14:11.292Z,89.70
2024-02-08T12:16:52.073Z,90.50
2024-02-08T12:19:19.316Z,90.90
2024-02-08T12:22:06.277Z,90.60
2024-02-08T12:24:34.559Z,90.90
2024-02-08T12:27:13.804Z,91.50
2024-02-08T12:29:51.702Z,91.10
2024-02-08T12:32:19.093Z,91.10
2024-02-08T12:34:49.518Z,90.80
2024-02-08T12:37:18.019Z,91.50
2024-02-08T12:39:46.375Z,91.70
2024-02-08T12:42:16.523Z,91.90
2024-02-08T12:44:49.993Z,92.20
2024-02-08T12:47:18.470Z,92.60
2024-02-08T12:49:49.632Z,92.60
2024-02-08T12:52:21.276Z,92.40
2024-02-08T12:54:55.660Z,91.70
2024-02-08T12:57:25.135Z,91.80
2024-02-08T13:00:01.797Z,92.00
2024-02-08T13:02:34.124Z,92.10
2024-02-08T13:05:04.957Z,92.00
2024-02-08T13:07:35.478Z,91.80
2024-02-08T13:10:09.435Z,91.80
2024-02-08T13:12:38.389Z,91.60
2024-02-08T13:15:11.181Z,91.50
2024-02-08T13:17:39.085Z,91.90
2024-02-08T13:20:18.008Z,91.20
2024-02-08T13:22:46.584Z,91.60
2024-02-08T13:25:13.833Z,91.50
2024-02-08T13:27:42.063Z,91.50
2024-02-08T13:30:16.013Z,91.20
2024-02-08T13:32:53.912Z,91.10
2024-02-08T13:35:21.341Z,91.40
2024-02-08T13:38:02.623Z,91.70
2024-02-08T13:40:29.616Z,91.90
2024-02-08T13:43:00.644Z,92.60
2024-02-08T13:45:30.909Z,92.40
2024-02-08T13:48:02.500Z,92.00
2024-02-08T13:50:32.216Z,92.10
2024-02-08T13:53:01.847Z,92.30
2024-02-08T13:55:45.223Z,92.30
2024-02-08T13:58:19.564Z,92.80
2024-02-08T14:00:47.284Z,92.90
2024-02-08T14:03:17.840Z,92.90
2024-02-08T14:05:52.083Z,92.40
2024-02-08T14:08:19.751Z,92.80
2024-02-08T14:10:47.079Z,92.70
2024-02-08T14:13:18.028Z,92.70
2024-02-08T14:15:47.347Z,93.20
2024-02-08T14:18:33.263Z,93.20
2024-02-08T14:21:03.185Z,93.00
2024-02-08T14:23:41.649Z,93.20
2024-02-08T14:26:31.024Z,93.00
2024-02-08T14:28:57.786Z,93.40
2024-02-08T14:31:24.632Z,93.30
2024-02-08T14:33:52.196Z,92.90
2024-02-08T14:36:19.652Z,93.30
2024-02-08T14:38:47.421Z,93.30
2024-02-08T14:41:27.724Z,93.20
2024-02-08T14:43:56.106Z,93.50
2024-02-08T14:46:27.288Z,93.60
2024-02-08T14:48:55.051Z,93.50
2024-02-08T14:51:24.931Z,93.50
2024-02-08T14:53:55.696Z,93.50
2024-02-08T14:56:22.706Z,94.20
2024-02-08T14:59:10.940Z,94.40
2024-02-08T15:01:39.734Z,94.30
2024-02-08T15:04:23.368Z,94.70
2024-02-08T15:07:06.019Z,95.20
2024-02-08T15:09:36.876Z,95.30
2024-02-08T15:12:24.286Z,95.20
2024-02-08T15:14:51.017Z,95.10
2024-02-08T15:17:20.645Z,94.90
2024-02-08T15:19:48.271Z,94.80
2024-02-08T15:22:20.202Z,94.90
2024-02-08T15:24:51.062Z,95.30
2024-02-08T15:27:32.652Z,95.20
2024-02-08T15:30:28.762Z,95.10
2024-02-08T15:32:58.096Z,94.70
2024-02-08T15:35:37.004Z,94.80
2024-02-08T15:38:23.172Z,94.90
2024-02-08T15:40:56.504Z,95.20
2024-02-08T15:43:26.716Z,94.90
2024-02-08T15:45:54.362Z,94.60
2024-02-08T15:48:33.452Z,94.30
2024-02-08T15:51:10.812Z,94.50
2024-02-08T15:53:50.567Z,94.50
2024-02-08T15:56:21.024Z,94.90
2024-02-08T15:58:49.319Z,95.20
2024-02-08T16:01:21.104Z,95.10
2024-02-08T16:03:56.261Z,95.20
2024-02-08T16:06:54.327Z,95.30
2024-02-08T16:09:27.989Z,95.10
2024-02-08T16:12:15.736Z,95.50
2024-02-08T16:14:49.371Z,95.70
2024-02-08T16:17:33.070Z,96.10
2024-02-08T16:20:09.851Z,95.90
2024-02-08T16:22:49.619Z,95.80
2024-02-08T16:25:18.475Z,96.10
2024-02-08T16:27:49.648Z,96.00
2024-02-08T16:30:34.741Z,96.40
2024-02-08T16:33:10.126Z,96.40
2024-02-08T16:35:58.849Z,96.30
2024-02-08T16:38:32.553Z,96.00
2024-02-08T16:41:06.065Z,95.60
2024-02-08T16:43:34.652Z,96.10
2024-02-08T16:46:12.662Z,95.50
2024-02-08T16:48:46.070Z,95.60
2024-02-08T16:51:17.963Z,95.40
2024-02-08T16:53:51.165Z,95.50
2024-02-08T16:56:22.452Z,95.40
2024-02-08T16:58:57.129Z,95.70
2024-02-08T17:01:30.993Z,96.00
2024-02-08T17:04:02.483Z,96.00
2024-02-08T17:06:34.998Z,96.10
2024-02-08T17:09:13.670Z,95.80
2024-02-08T17:11:45.912Z,96.20
2024-02-08T17:14:33.772Z,96.10
2024-02-08T17:17:07.361Z,96.10
2024-02-08T17:19:37.046Z,96.00
2024-02-08T17:22:06.840Z,96.00
2024-02-08T17:24:42.768Z,96.20
2024-02-08T17:27:28.652Z,96.40
2024-02-08T17:30:05.648Z,96.30
2024-02-08T17:32:44.164Z,96.20
2024-02-08T17:35:11.650Z,96.30
2024-02-08T17:37:49.399Z,96.20
2024-02-08T17:40:20.222Z,96.30
2024-02-08T17:42:47.613Z,96.20
2024-02-08T17:45:17.334Z,96.00
2024-02-08T17:47:44.368Z,96.30
2024-02-08T17:50:30.234Z,95.80
2024-02-08T17:52:57.872Z,95.70
2024-02-08T17:55:34.325Z,96.40
2024-02-08T17:58:02.414Z,96.40
2024-02-08T18:00:29.322Z,95.70
2024-02-08T18:02:57.579Z,95.70
2024-02-08T18:05:28.278Z,95.80
2024-02-08T18:07:58.266Z,95.80
2024-02-08T18:10:38.474Z,95.80
2024-02-08T18:13:10.452Z,96.00
2024-02-08T18:15:38.143Z,96.30
2024-02-08T18:18:06.496Z,96.20
2024-02-08T18:20:35.057Z,96.50
2024-02-08T18:23:04.756Z,96.60
2024-02-08T18:25:32.208Z,96.70
2024-02-08T18:28:01.254Z,96.70
2024-02-08T18:30:30.326Z,96.60
2024-02-08T18:33:09.794Z,96.60
2024-02-08T18:35:37.195Z,96.90
2024-02-08T18:38:09.850Z,97.10
2024-02-08T18:40:38.614Z,96.70
2024-02-08T18:43:06.382Z,96.50
2024-02-08T18:45:38.466Z,96.10
2024-02-08T18:48:06.510Z,96.00
2024-02-08T18:50:34.134Z,96.20
2024-02-08T18:53:01.693Z,96.40
2024-02-08T18:55:44.990Z,96.30
2024-02-08T18:58:18.191Z,96.50
2024-02-08T19:00:55.486Z,96.30
2024-02-08T19:03:23.433Z,96.20
2024-02-08T19:05:50.962Z,96.50
2024-02-08T19:08:22.119Z,96.40
2024-02-08T19:10:53.720Z,96.70
2024-02-08T19:13:36.813Z,96.70
2024-02-08T19:16:15.743Z,96.50
2024-02-08T19:18:46.457Z,96.60
2024-02-08T19:21:32.033Z,96.60
2024-02-08T19:24:03.501Z,96.50
2024-02-08T19:26:32.639Z,96.80
2024-02-08T19:29:00.431Z,97.20
2024-02-08T19:31:31.310Z,97.10
2024-02-08T19:34:04.848Z,96.60
2024-02-08T19:36:32.642Z,96.50
2024-02-08T19:39:12.739Z,96.40
2024-02-08T19:41:39.795Z,96.50
2024-02-08T19:44:08.027Z,96.40
2024-02-08T19:46:39.766Z,96.60
2024-02-08T19:49:10.646Z,96.80
2024-02-08T19:51:37.679Z,96.50
2024-02-08T19:54:09.296Z,96.30
2024-02-08T19:56:38.111Z,96.20
2024-02-08T19:59:07.845Z,96.40
2024-02-08T20:01:37.311Z,96.30
2024-02-08T20:04:05.934Z,96.40
2024-02-08T20:06:35.415Z,96.10
2024-02-08T20:09:09.144Z,96.20
2024-02-08T20:11:40.256Z,96.50
2024-02-08T20:14:12.975Z,96.30
2024-02-08T20:16:43.040Z,96.20
2024-02-08T20:19:14.603Z,96.40
2024-02-08T20:21:41.578Z,96.70
2024-02-08T20:24:12.837Z,96.50
2024-02-08T20:26:39.701Z,96.20
2024-02-08T20:29:06.387Z,96.50
2024-02-08T20:31:33.315Z,96.50
2024-02-08T20:34:00.234Z,96.30
2024-02-08T20:36:26.957Z,96.10
2024-02-08T20:38:56.721Z,96.20
2024-02-08T20:41:26.791Z,96.30
2024-02-08T20:44:06.957Z,96.30
2024-02-08T20:46:34.200Z,96.40
2024-02-08T20:49:02.681Z,96.10
2024-02-08T20:51:29.739Z,96.00
2024-02-08T20:53:56.473Z,96.20
2024-02-08T20:56:29.371Z,96.30
2024-02-08T20:58:59.824Z,96.00
2024-02-08T21:01:26.782Z,96.10
2024-02-08T21:03:57.326Z,96.50
2024-02-08T21:06:26.112Z,96.40
2024-02-08T21:08:52.860Z,96.60
2024-02-08T21:11:19.564Z,96.40
2024-02-08T21:13:50.148Z,96.20
2024-02-08T21:16:20.979Z,96.40
2024-02-08T21:18:48.548Z,96.70
2024-02-08T21:21:15.288Z,97.50
2024-02-08T21:23:44.806Z,97.00
2024-02-08T21:26:16.244Z,96.80
2024-02-08T21:28:52.116Z,96.80
2024-02-08T21:31:19.915Z,96.80
2024-02-08T21:33:51.101Z,96.60
2024-02-08T21:36:18.971Z,96.60
2024-02-08T21:38:50.144Z,96.50
2024-02-08T21:41:17.645Z,96.40
2024-02-08T21:43:44.709Z,96.10
2024-02-08T21:46:14.427Z,96.40
2024-02-08T21:48:44.868Z,96.90
2024-02-08T21:51:13.413Z,96.90
2024-02-08T21:53:40.250Z,96.80
2024-02-08T21:56:15.347Z,96.60
2024-02-08T21:58:44.730Z,96.40
2024-02-08T22:03:58.327Z,96.60
2024-02-08T22:06:25.839Z,96.70
2024-02-08T22:08:52.797Z,96.50
2024-02-08T22:11:19.536Z,96.70
2024-02-08T22:13:46.907Z,96.70
2024-02-08T22:16:16.621Z,96.60
2024-02-08T22:18:47.104Z,96.40
2024-02-08T22:21:17.866Z,96.80
2024-02-08T22:23:45.249Z,96.30
2024-02-08T22:26:13.948Z,96.10
2024-02-08T22:28:44.141Z,96.10
2024-02-08T22:31:13.678Z,96.00
2024-02-08T22:33:40.525Z,96.30
2024-02-08T22:36:07.741Z,96.90
2024-02-08T22:38:34.540Z,96.40
2024-02-08T22:41:01.531Z,96.20
2024-02-08T22:43:28.629Z,96.40
2024-02-08T22:45:55.761Z,96.60
2024-02-08T22:48:23.085Z,96.50
2024-02-08T22:50:52.394Z,96.40
2024-02-08T22:53:20.652Z,96.20
2024-02-08T22:55:47.566Z,96.20
2024-02-08T22:58:14.340Z,96.30
2024-02-08T23:00:50.694Z,96.40
2024-02-08T23:03:18.166Z,96.50
2024-02-08T23:05:46.752Z,96.50
2024-02-08T23:08:16.933Z,96.80
2024-02-08T23:10:43.761Z,96.80
2024-02-08T23:13:14.295Z,96.70
2024-02-08T23:15:45.790Z,96.60
2024-02-08T23:18:15.731Z,96.50
2024-02-08T23:20:44.639Z,96.40
2024-02-08T23:23:14.435Z,96.40
2024-02-08T23:25:41.841Z,96.40
2024-02-08T23:28:09.901Z,96.30
2024-02-08T23:30:36.890Z,96.30
2024-02-08T23:33:03.832Z,96.40
2024-02-08T23:35:31.647Z,96.30
2024-02-08T23:38:03.893Z,96.30
2024-02-08T23:40:30.613Z,96.30
2024-02-08T23:42:59.365Z,96.20
2024-02-08T23:45:32.059Z,96.40
2024-02-08T23:48:00.679Z,96.50
2024-02-08T23:50:29.186Z,96.70
2024-02-08T23:53:01.336Z,96.60
2024-02-08T23:55:29.188Z,96.70
2024-02-08T23:57:57.122Z,96.70
